PDT,Max TemperatureF,Mean TemperatureF,Min TemperatureF,Max Dew PointF,MeanDew PointF,Min DewpointF,Max Humidity, Mean Humidity, Min Humidity, Max Sea Level PressureIn, Mean Sea Level PressureIn, Min Sea Level PressureIn, Max VisibilityMiles, Mean VisibilityMiles, Min VisibilityMiles, Max Wind SpeedMPH, Mean Wind SpeedMPH, Max Gust SpeedMPH,PrecipitationIn, CloudCover, Events, WindDirDegrees
2013-6-1,76,62,47,41,38,35,71,47,23,30.19,30.07,29.92,10,10,10,21,7,29,0.00,1,,10
2013-6-2,75,65,55,42,38,33,59,42,25,29.95,29.91,29.88,10,10,10,23,12,28,T,4,,334
2013-6-3,79,67,54,42,39,36,55,39,23,30.02,29.96,29.92,10,10,10,20,9,32,0.00,2,,314
2013-6-4,82,67,51,45,42,38,63,42,21,30.12,30.05,29.99,10,10,10,12,6,20,0.00,0,,6
2013-6-5,90,72,53,47,43,39,66,43,19,30.01,29.94,29.87,10,10,10,24,10,29,0.00,0,,296
2013-6-6,90,77,64,43,39,26,42,29,15,29.94,29.88,29.81,10,10,10,23,10,29,0.00,0,,292
2013-6-7,89,75,60,47,37,24,35,25,15,29.92,29.86,29.83,10,10,10,35,13,40,0.00,1,,285
2013-6-8,88,69,50,40,33,29,35,25,15,30.01,29.93,29.86,10,10,10,28,12,36,0.00,0,,280
2013-6-9,82,69,55,37,31,19,51,31,10,29.92,29.87,29.80,10,10,10,29,9,35,0.00,0,,280
2013-6-10,79,67,54,41,32,28,55,36,17,29.85,29.78,29.70,10,10,10,22,9,31,0.00,0,,274
2013-6-11,74,61,48,42,35,29,77,49,20,29.98,29.83,29.72,10,10,10,23,11,30,0.00,0,,230
2013-6-12,72,58,43,35,32,28,58,39,20,30.04,30.00,29.95,10,10,10,18,7,24,0.00,0,,258
2013-6-13,73,62,51,38,35,30,50,37,23,30.05,30.02,29.99,10,10,10,26,9,31,0.00,1,Thunderstorm,287
2013-6-14,75,63,51,39,36,35,54,39,23,30.11,30.05,29.99,10,10,10,21,8,26,0.00,1,,223
2013-6-15,85,67,49,40,36,31,63,39,15,30.00,29.95,29.88,10,10,10,14,6,16,0.00,0,,343
2013-6-16,89,74,58,42,36,34,37,26,14,29.98,29.92,29.85,10,10,10,22,8,25,0.00,0,,335
2013-6-17,85,73,61,57,47,36,47,32,17,29.94,29.88,29.79,10,10,7,24,9,33,0.09,3,Rain-Thunderstorm,224
2013-6-18,62,58,54,58,54,52,93,87,80,29.94,29.89,29.84,10,9,5,12,5,14,0.63,7,Rain,179
2013-6-19,62,58,53,53,49,42,93,73,53,29.85,29.81,29.77,10,10,6,14,6,23,0.15,7,Rain,307
2013-6-20,60,56,52,51,48,41,89,70,51,30.02,29.90,29.82,10,10,8,21,9,26,0.35,8,Rain,217
2013-6-21,69,60,51,50,48,45,96,71,45,30.09,30.07,30.02,10,10,10,10,5,13,T,7,,127
2013-6-22,76,64,52,51,48,44,93,63,33,30.07,29.99,29.89,10,10,10,14,5,21,0.00,3,,163
2013-6-23,78,67,55,57,49,45,90,62,33,29.88,29.74,29.61,10,10,9,16,6,20,0.06,3,Rain,300
2013-6-24,68,60,52,58,55,49,100,78,56,29.69,29.62,29.59,10,10,7,25,6,29,0.04,7,Rain,184
2013-6-25,73,62,51,54,51,49,100,72,44,29.83,29.76,29.70,10,10,10,18,8,26,0.04,5,Rain,143
2013-6-26,76,63,50,56,51,49,89,67,44,30.05,29.96,29.83,10,10,10,17,6,22,T,2,Rain,211
2013-6-27,81,70,58,58,55,52,93,66,39,30.18,30.13,30.07,10,10,10,13,6,17,0.02,3,Rain,4
2013-6-28,92,76,60,58,55,52,78,53,28,30.20,30.11,30.00,10,10,10,15,5,23,0.00,0,,349
2013-6-29,91,80,68,64,58,54,68,49,29,30.04,29.99,29.94,10,10,7,17,8,22,0.01,2,Rain-Thunderstorm,342
2013-6-30,97,82,66,60,56,49,81,51,20,30.01,29.96,29.89,10,10,10,10,5,13,0.00,0,,355